sensor_id;sensor_type;location;lat;lon;timestamp;P1;durP1;ratioP1;P2;durP2;ratioP2
359;SDS011;168;48.872;9.226;2022-08-05T00:01:46;6.53;;;6.13;;
359;SDS011;168;48.872;9.226;2022-08-05T00:04:14;6.60;;;6.10;;
359;SDS011;168;48.872;9.226;2022-08-05T00:06:42;5.77;;;5.33;;
359;SDS011;168;48.872;9.226;2022-08-05T00:09:10;7.03;;;6.37;;
359;SDS011;168;48.872;9.226;2022-08-05T00:11:38;6.53;;;6.13;;
359;SDS011;168;48.872;9.226;2022-08-05T00:14:05;6.80;;;6.30;;
359;SDS011;168;48.872;9.226;2022-08-05T00:16:33;6.30;;;5.83;;
359;SDS011;168;48.872;9.226;2022-08-05T00:19:00;6.67;;;6.10;;
359;SDS011;168;48.872;9.226;2022-08-05T00:21:29;6.93;;;6.07;;
359;SDS011;168;48.872;9.226;2022-08-05T00:23:57;7.00;;;6.40;;
359;SDS011;168;48.872;9.226;2022-08-05T00:26:25;6.33;;;5.93;;
359;SDS011;168;48.872;9.226;2022-08-05T00:28:53;6.47;;;6.07;;
359;SDS011;168;48.872;9.226;2022-08-05T00:31:20;6.40;;;6.00;;
359;SDS011;168;48.872;9.226;2022-08-05T00:33:48;6.50;;;6.00;;
359;SDS011;168;48.872;9.226;2022-08-05T00:36:15;7.10;;;6.60;;
359;SDS011;168;48.872;9.226;2022-08-05T00:38:44;7.93;;;7.13;;
359;SDS011;168;48.872;9.226;2022-08-05T00:41:11;7.13;;;6.60;;
359;SDS011;168;48.872;9.226;2022-08-05T00:43:39;7.37;;;6.67;;
359;SDS011;168;48.872;9.226;2022-08-05T00:46:06;7.40;;;6.80;;
359;SDS011;168;48.872;9.226;2022-08-05T00:48:34;7.57;;;7.00;;
359;SDS011;168;48.872;9.226;2022-08-05T00:51:01;7.10;;;6.60;;
359;SDS011;168;48.872;9.226;2022-08-05T00:53:28;7.57;;;7.07;;
359;SDS011;168;48.872;9.226;2022-08-05T00:55:57;8.77;;;7.90;;
359;SDS011;168;48.872;9.226;2022-08-05T00:58:25;8.30;;;7.57;;
359;SDS011;168;48.872;9.226;2022-08-05T01:00:53;7.00;;;6.50;;
359;SDS011;168;48.872;9.226;2022-08-05T01:03:20;7.03;;;6.43;;
359;SDS011;168;48.872;9.226;2022-08-05T01:05:48;7.07;;;5.60;;
359;SDS011;168;48.872;9.226;2022-08-05T01:08:16;5.80;;;5.40;;
359;SDS011;168;48.872;9.226;2022-08-05T01:10:47;6.03;;;5.23;;
359;SDS011;168;48.872;9.226;2022-08-05T01:13:27;5.47;;;5.07;;
359;SDS011;168;48.872;9.226;2022-08-05T01:16:04;5.17;;;4.70;;
359;SDS011;168;48.872;9.226;2022-08-05T01:18:42;4.90;;;4.40;;
359;SDS011;168;48.872;9.226;2022-08-05T01:21:29;5.10;;;4.60;;
359;SDS011;168;48.872;9.226;2022-08-05T01:24:19;4.30;;;3.90;;
359;SDS011;168;48.872;9.226;2022-08-05T01:27:06;5.30;;;4.83;;
359;SDS011;168;48.872;9.226;2022-08-05T01:29:42;7.23;;;4.10;;
359;SDS011;168;48.872;9.226;2022-08-05T01:32:15;6.47;;;4.30;;
359;SDS011;168;48.872;9.226;2022-08-05T01:35:00;4.10;;;3.80;;
359;SDS011;168;48.872;9.226;2022-08-05T01:37:42;9.70;;;4.37;;
359;SDS011;168;48.872;9.226;2022-08-05T01:40:17;3.93;;;3.63;;
359;SDS011;168;48.872;9.226;2022-08-05T01:42:51;3.93;;;3.57;;
359;SDS011;168;48.872;9.226;2022-08-05T01:45:29;5.13;;;4.60;;
359;SDS011;168;48.872;9.226;2022-08-05T01:48:00;5.10;;;3.63;;
359;SDS011;168;48.872;9.226;2022-08-05T01:50:34;4.73;;;4.33;;
359;SDS011;168;48.872;9.226;2022-08-05T01:53:06;4.30;;;3.90;;
359;SDS011;168;48.872;9.226;2022-08-05T01:55:51;4.07;;;3.73;;
359;SDS011;168;48.872;9.226;2022-08-05T01:58:30;4.57;;;4.07;;
359;SDS011;168;48.872;9.226;2022-08-05T02:01:02;4.20;;;3.80;;
359;SDS011;168;48.872;9.226;2022-08-05T02:03:40;7.90;;;4.57;;
359;SDS011;168;48.872;9.226;2022-08-05T02:06:13;8.73;;;4.20;;
359;SDS011;168;48.872;9.226;2022-08-05T02:08:57;7.60;;;4.43;;
359;SDS011;168;48.872;9.226;2022-08-05T02:11:40;6.33;;;4.50;;
359;SDS011;168;48.872;9.226;2022-08-05T02:14:24;7.87;;;4.67;;
359;SDS011;168;48.872;9.226;2022-08-05T02:16:59;5.43;;;4.20;;
359;SDS011;168;48.872;9.226;2022-08-05T02:19:40;4.67;;;4.37;;
359;SDS011;168;48.872;9.226;2022-08-05T02:22:22;6.90;;;4.27;;
359;SDS011;168;48.872;9.226;2022-08-05T02:25:01;4.20;;;3.87;;
359;SDS011;168;48.872;9.226;2022-08-05T02:27:32;4.33;;;4.03;;
359;SDS011;168;48.872;9.226;2022-08-05T02:30:13;6.50;;;4.80;;
359;SDS011;168;48.872;9.226;2022-08-05T02:32:45;7.90;;;4.53;;
359;SDS011;168;48.872;9.226;2022-08-05T02:35:15;4.53;;;4.13;;
359;SDS011;168;48.872;9.226;2022-08-05T02:37:46;6.70;;;4.43;;
359;SDS011;168;48.872;9.226;2022-08-05T02:40:15;6.77;;;4.63;;
359;SDS011;168;48.872;9.226;2022-08-05T02:42:44;4.60;;;4.20;;
359;SDS011;168;48.872;9.226;2022-08-05T02:45:13;5.47;;;4.50;;
359;SDS011;168;48.872;9.226;2022-08-05T02:47:41;7.13;;;4.53;;
359;SDS011;168;48.872;9.226;2022-08-05T02:50:11;5.43;;;4.53;;
359;SDS011;168;48.872;9.226;2022-08-05T02:52:40;5.73;;;4.93;;
359;SDS011;168;48.872;9.226;2022-08-05T02:55:10;6.33;;;4.23;;
359;SDS011;168;48.872;9.226;2022-08-05T02:57:38;6.87;;;4.87;;
359;SDS011;168;48.872;9.226;2022-08-05T03:00:07;8.23;;;4.63;;
359;SDS011;168;48.872;9.226;2022-08-05T03:02:38;4.93;;;4.53;;
359;SDS011;168;48.872;9.226;2022-08-05T03:05:09;6.20;;;4.90;;
359;SDS011;168;48.872;9.226;2022-08-05T03:07:38;5.10;;;4.60;;
359;SDS011;168;48.872;9.226;2022-08-05T03:10:07;6.00;;;4.70;;
359;SDS011;168;48.872;9.226;2022-08-05T03:12:36;5.10;;;4.57;;
359;SDS011;168;48.872;9.226;2022-08-05T03:15:05;7.33;;;4.60;;
359;SDS011;168;48.872;9.226;2022-08-05T03:17:34;5.10;;;4.43;;
359;SDS011;168;48.872;9.226;2022-08-05T03:20:02;6.30;;;4.73;;
359;SDS011;168;48.872;9.226;2022-08-05T03:22:32;8.20;;;5.00;;
359;SDS011;168;48.872;9.226;2022-08-05T03:25:00;6.53;;;4.40;;
359;SDS011;168;48.872;9.226;2022-08-05T03:27:28;6.37;;;5.03;;
359;SDS011;168;48.872;9.226;2022-08-05T03:29:56;8.33;;;4.70;;
359;SDS011;168;48.872;9.226;2022-08-05T03:32:24;6.30;;;4.70;;
359;SDS011;168;48.872;9.226;2022-08-05T03:34:52;5.00;;;4.60;;
359;SDS011;168;48.872;9.226;2022-08-05T03:37:19;5.90;;;5.00;;
359;SDS011;168;48.872;9.226;2022-08-05T03:39:57;7.80;;;4.63;;
359;SDS011;168;48.872;9.226;2022-08-05T03:42:28;5.23;;;4.43;;
359;SDS011;168;48.872;9.226;2022-08-05T03:44:55;6.23;;;4.53;;
359;SDS011;168;48.872;9.226;2022-08-05T03:47:22;7.13;;;4.60;;
359;SDS011;168;48.872;9.226;2022-08-05T03:49:50;5.30;;;4.67;;
359;SDS011;168;48.872;9.226;2022-08-05T03:52:18;9.00;;;4.90;;
359;SDS011;168;48.872;9.226;2022-08-05T03:54:49;4.87;;;4.53;;
359;SDS011;168;48.872;9.226;2022-08-05T03:57:23;6.90;;;4.73;;
359;SDS011;168;48.872;9.226;2022-08-05T03:59:56;5.90;;;4.73;;
359;SDS011;168;48.872;9.226;2022-08-05T04:02:28;9.00;;;4.57;;
359;SDS011;168;48.872;9.226;2022-08-05T04:04:58;4.77;;;4.33;;
359;SDS011;168;48.872;9.226;2022-08-05T04:07:27;6.57;;;4.37;;
359;SDS011;168;48.872;9.226;2022-08-05T04:09:55;5.83;;;5.20;;
359;SDS011;168;48.872;9.226;2022-08-05T04:12:24;5.33;;;4.80;;
359;SDS011;168;48.872;9.226;2022-08-05T04:14:52;5.37;;;4.73;;
359;SDS011;168;48.872;9.226;2022-08-05T04:17:20;6.73;;;4.33;;
359;SDS011;168;48.872;9.226;2022-08-05T04:19:48;5.57;;;4.47;;
359;SDS011;168;48.872;9.226;2022-08-05T04:22:15;7.23;;;5.30;;
359;SDS011;168;48.872;9.226;2022-08-05T04:24:44;6.57;;;5.43;;
359;SDS011;168;48.872;9.226;2022-08-05T04:27:12;7.00;;;5.23;;
359;SDS011;168;48.872;9.226;2022-08-05T04:29:41;5.20;;;4.70;;
359;SDS011;168;48.872;9.226;2022-08-05T04:32:09;5.00;;;4.53;;
359;SDS011;168;48.872;9.226;2022-08-05T04:34:36;7.60;;;4.63;;
359;SDS011;168;48.872;9.226;2022-08-05T04:37:04;5.10;;;4.70;;
359;SDS011;168;48.872;9.226;2022-08-05T04:39:31;9.20;;;5.47;;
359;SDS011;168;48.872;9.226;2022-08-05T04:41:59;9.73;;;5.13;;
359;SDS011;168;48.872;9.226;2022-08-05T04:44:27;8.30;;;5.30;;
359;SDS011;168;48.872;9.226;2022-08-05T04:46:55;7.00;;;5.37;;
359;SDS011;168;48.872;9.226;2022-08-05T04:49:26;6.33;;;5.50;;
359;SDS011;168;48.872;9.226;2022-08-05T04:51:54;8.83;;;5.77;;
359;SDS011;168;48.872;9.226;2022-08-05T04:54:22;8.30;;;5.77;;
359;SDS011;168;48.872;9.226;2022-08-05T04:56:51;6.90;;;5.17;;
359;SDS011;168;48.872;9.226;2022-08-05T04:59:19;6.87;;;5.53;;
359;SDS011;168;48.872;9.226;2022-08-05T05:01:47;6.50;;;5.87;;
359;SDS011;168;48.872;9.226;2022-08-05T05:04:15;7.47;;;5.80;;
359;SDS011;168;48.872;9.226;2022-08-05T05:06:43;6.50;;;5.80;;
359;SDS011;168;48.872;9.226;2022-08-05T05:09:11;9.70;;;5.70;;
359;SDS011;168;48.872;9.226;2022-08-05T05:11:38;7.70;;;6.77;;
359;SDS011;168;48.872;9.226;2022-08-05T05:14:06;7.73;;;6.80;;
359;SDS011;168;48.872;9.226;2022-08-05T05:16:34;9.13;;;7.03;;
359;SDS011;168;48.872;9.226;2022-08-05T05:19:02;7.30;;;6.60;;
359;SDS011;168;48.872;9.226;2022-08-05T05:21:30;6.90;;;6.20;;
359;SDS011;168;48.872;9.226;2022-08-05T05:23:58;7.83;;;7.13;;
359;SDS011;168;48.872;9.226;2022-08-05T05:26:25;11.93;;;7.23;;
359;SDS011;168;48.872;9.226;2022-08-05T05:28:53;8.60;;;7.70;;
359;SDS011;168;48.872;9.226;2022-08-05T05:31:20;7.77;;;7.07;;
359;SDS011;168;48.872;9.226;2022-08-05T05:33:48;8.27;;;7.47;;
359;SDS011;168;48.872;9.226;2022-08-05T05:36:15;10.43;;;7.03;;
359;SDS011;168;48.872;9.226;2022-08-05T05:38:44;7.20;;;6.60;;
359;SDS011;168;48.872;9.226;2022-08-05T05:41:12;7.50;;;6.90;;
359;SDS011;168;48.872;9.226;2022-08-05T05:43:40;11.83;;;7.57;;
359;SDS011;168;48.872;9.226;2022-08-05T05:46:07;7.87;;;6.90;;
359;SDS011;168;48.872;9.226;2022-08-05T05:48:34;8.23;;;7.10;;
359;SDS011;168;48.872;9.226;2022-08-05T05:51:06;7.17;;;6.47;;
359;SDS011;168;48.872;9.226;2022-08-05T05:53:33;7.27;;;6.57;;
359;SDS011;168;48.872;9.226;2022-08-05T05:56:04;6.33;;;5.83;;
359;SDS011;168;48.872;9.226;2022-08-05T05:58:39;7.03;;;6.43;;
359;SDS011;168;48.872;9.226;2022-08-05T06:01:12;6.80;;;6.20;;
359;SDS011;168;48.872;9.226;2022-08-05T06:03:39;5.97;;;5.57;;
359;SDS011;168;48.872;9.226;2022-08-05T06:06:07;4.83;;;4.43;;
359;SDS011;168;48.872;9.226;2022-08-05T06:08:35;5.53;;;5.03;;
359;SDS011;168;48.872;9.226;2022-08-05T06:18:07;5.43;;;4.93;;
359;SDS011;168;48.872;9.226;2022-08-05T06:20:36;4.93;;;4.53;;
359;SDS011;168;48.872;9.226;2022-08-05T06:23:07;5.73;;;4.90;;
359;SDS011;168;48.872;9.226;2022-08-05T06:25:41;7.83;;;5.30;;
359;SDS011;168;48.872;9.226;2022-08-05T06:28:16;5.27;;;4.87;;
359;SDS011;168;48.872;9.226;2022-08-05T06:43:58;4.93;;;4.63;;
359;SDS011;168;48.872;9.226;2022-08-05T06:50:11;4.60;;;4.30;;
359;SDS011;168;48.872;9.226;2022-08-05T06:52:39;5.43;;;4.93;;
359;SDS011;168;48.872;9.226;2022-08-05T06:55:07;6.57;;;5.27;;
359;SDS011;168;48.872;9.226;2022-08-05T06:57:35;5.40;;;5.00;;
359;SDS011;168;48.872;9.226;2022-08-05T07:00:18;4.90;;;4.57;;
359;SDS011;168;48.872;9.226;2022-08-05T07:02:50;5.67;;;5.13;;
359;SDS011;168;48.872;9.226;2022-08-05T07:05:23;5.80;;;5.20;;
359;SDS011;168;48.872;9.226;2022-08-05T07:11:18;5.63;;;4.83;;
359;SDS011;168;48.872;9.226;2022-08-05T07:13:48;5.40;;;5.00;;
359;SDS011;168;48.872;9.226;2022-08-05T07:16:45;5.10;;;4.70;;
359;SDS011;168;48.872;9.226;2022-08-05T07:19:19;6.70;;;4.67;;
359;SDS011;168;48.872;9.226;2022-08-05T07:31:41;5.80;;;5.30;;
359;SDS011;168;48.872;9.226;2022-08-05T07:34:16;4.97;;;4.40;;
359;SDS011;168;48.872;9.226;2022-08-05T07:36:43;4.90;;;4.50;;
359;SDS011;168;48.872;9.226;2022-08-05T07:39:11;5.13;;;4.63;;
359;SDS011;168;48.872;9.226;2022-08-05T07:41:38;5.57;;;5.07;;
359;SDS011;168;48.872;9.226;2022-08-05T07:44:06;5.40;;;4.20;;
359;SDS011;168;48.872;9.226;2022-08-05T07:46:34;7.80;;;4.70;;
359;SDS011;168;48.872;9.226;2022-08-05T07:49:03;4.73;;;4.20;;
359;SDS011;168;48.872;9.226;2022-08-05T07:51:34;4.37;;;4.07;;
359;SDS011;168;48.872;9.226;2022-08-05T07:54:02;4.37;;;4.07;;
359;SDS011;168;48.872;9.226;2022-08-05T07:56:31;4.10;;;3.80;;
359;SDS011;168;48.872;9.226;2022-08-05T07:58:58;3.50;;;3.20;;
359;SDS011;168;48.872;9.226;2022-08-05T08:01:26;4.30;;;3.30;;
359;SDS011;168;48.872;9.226;2022-08-05T08:07:30;3.10;;;2.90;;
359;SDS011;168;48.872;9.226;2022-08-05T08:10:04;3.57;;;3.27;;
359;SDS011;168;48.872;9.226;2022-08-05T08:12:34;3.57;;;3.27;;
359;SDS011;168;48.872;9.226;2022-08-05T08:15:04;3.20;;;3.00;;
359;SDS011;168;48.872;9.226;2022-08-05T08:17:33;3.47;;;3.17;;
359;SDS011;168;48.872;9.226;2022-08-05T08:20:00;3.40;;;3.10;;
359;SDS011;168;48.872;9.226;2022-08-05T08:22:31;3.50;;;3.20;;
359;SDS011;168;48.872;9.226;2022-08-05T08:24:59;3.00;;;2.80;;
359;SDS011;168;48.872;9.226;2022-08-05T08:27:27;2.80;;;2.60;;
359;SDS011;168;48.872;9.226;2022-08-05T08:29:55;3.23;;;3.00;;
359;SDS011;168;48.872;9.226;2022-08-05T08:32:22;3.00;;;2.70;;
359;SDS011;168;48.872;9.226;2022-08-05T08:34:50;3.83;;;3.30;;
359;SDS011;168;48.872;9.226;2022-08-05T08:37:18;3.07;;;2.87;;
359;SDS011;168;48.872;9.226;2022-08-05T08:39:47;3.00;;;2.80;;
359;SDS011;168;48.872;9.226;2022-08-05T08:42:14;3.83;;;3.40;;
359;SDS011;168;48.872;9.226;2022-08-05T08:44:43;3.93;;;3.20;;
359;SDS011;168;48.872;9.226;2022-08-05T08:47:11;3.73;;;3.43;;
359;SDS011;168;48.872;9.226;2022-08-05T08:49:42;4.80;;;3.53;;
359;SDS011;168;48.872;9.226;2022-08-05T08:52:11;3.20;;;2.90;;
359;SDS011;168;48.872;9.226;2022-08-05T08:54:43;3.80;;;3.50;;
359;SDS011;168;48.872;9.226;2022-08-05T08:57:21;3.37;;;3.03;;
359;SDS011;168;48.872;9.226;2022-08-05T08:59:48;3.57;;;3.23;;
359;SDS011;168;48.872;9.226;2022-08-05T09:02:17;4.50;;;3.60;;
359;SDS011;168;48.872;9.226;2022-08-05T09:04:51;3.03;;;2.80;;
359;SDS011;168;48.872;9.226;2022-08-05T09:07:19;4.27;;;3.70;;
359;SDS011;168;48.872;9.226;2022-08-05T09:09:46;3.17;;;2.97;;
359;SDS011;168;48.872;9.226;2022-08-05T09:12:14;3.20;;;2.97;;
359;SDS011;168;48.872;9.226;2022-08-05T09:14:43;3.03;;;2.83;;
359;SDS011;168;48.872;9.226;2022-08-05T09:17:10;2.97;;;2.77;;
359;SDS011;168;48.872;9.226;2022-08-05T09:19:39;3.00;;;2.80;;
359;SDS011;168;48.872;9.226;2022-08-05T09:22:06;3.10;;;2.90;;
359;SDS011;168;48.872;9.226;2022-08-05T09:27:45;3.80;;;3.00;;
359;SDS011;168;48.872;9.226;2022-08-05T09:30:15;3.40;;;3.00;;
359;SDS011;168;48.872;9.226;2022-08-05T09:32:43;3.87;;;3.50;;
359;SDS011;168;48.872;9.226;2022-08-05T09:35:14;3.33;;;3.13;;
359;SDS011;168;48.872;9.226;2022-08-05T09:37:48;3.50;;;3.10;;
359;SDS011;168;48.872;9.226;2022-08-05T09:40:29;3.00;;;2.80;;
359;SDS011;168;48.872;9.226;2022-08-05T09:43:00;3.10;;;2.90;;
359;SDS011;168;48.872;9.226;2022-08-05T09:45:36;3.07;;;2.87;;
359;SDS011;168;48.872;9.226;2022-08-05T09:48:21;3.20;;;3.00;;
359;SDS011;168;48.872;9.226;2022-08-05T09:50:51;2.80;;;2.70;;
359;SDS011;168;48.872;9.226;2022-08-05T09:53:20;3.50;;;2.90;;
359;SDS011;168;48.872;9.226;2022-08-05T09:55:51;2.60;;;2.40;;
359;SDS011;168;48.872;9.226;2022-08-05T09:58:20;2.87;;;2.67;;
359;SDS011;168;48.872;9.226;2022-08-05T10:00:52;2.70;;;2.50;;
359;SDS011;168;48.872;9.226;2022-08-05T10:03:21;2.97;;;2.77;;
359;SDS011;168;48.872;9.226;2022-08-05T10:05:59;3.00;;;2.80;;
359;SDS011;168;48.872;9.226;2022-08-05T10:08:27;3.23;;;2.70;;
359;SDS011;168;48.872;9.226;2022-08-05T10:10:55;3.07;;;2.87;;
359;SDS011;168;48.872;9.226;2022-08-05T10:13:27;2.90;;;2.70;;
359;SDS011;168;48.872;9.226;2022-08-05T10:15:58;3.27;;;2.93;;
359;SDS011;168;48.872;9.226;2022-08-05T10:18:25;3.30;;;3.00;;
359;SDS011;168;48.872;9.226;2022-08-05T10:20:57;3.17;;;2.90;;
359;SDS011;168;48.872;9.226;2022-08-05T10:23:27;3.23;;;2.97;;
359;SDS011;168;48.872;9.226;2022-08-05T10:25:57;3.20;;;2.93;;
359;SDS011;168;48.872;9.226;2022-08-05T10:28:26;3.50;;;3.20;;
359;SDS011;168;48.872;9.226;2022-08-05T10:30:54;3.93;;;3.07;;
359;SDS011;168;48.872;9.226;2022-08-05T10:33:25;3.27;;;3.00;;
359;SDS011;168;48.872;9.226;2022-08-05T10:35:54;3.00;;;2.70;;
359;SDS011;168;48.872;9.226;2022-08-05T10:38:25;3.30;;;2.97;;
359;SDS011;168;48.872;9.226;2022-08-05T10:40:55;3.07;;;2.30;;
359;SDS011;168;48.872;9.226;2022-08-05T10:46:14;3.33;;;2.87;;
359;SDS011;168;48.872;9.226;2022-08-05T10:48:46;2.40;;;2.20;;
359;SDS011;168;48.872;9.226;2022-08-05T10:51:15;2.80;;;2.60;;
359;SDS011;168;48.872;9.226;2022-08-05T10:53:51;3.60;;;3.30;;
359;SDS011;168;48.872;9.226;2022-08-05T10:56:21;3.20;;;2.90;;
359;SDS011;168;48.872;9.226;2022-08-05T10:59:00;3.50;;;3.20;;
359;SDS011;168;48.872;9.226;2022-08-05T11:04:35;2.80;;;2.60;;
359;SDS011;168;48.872;9.226;2022-08-05T11:07:09;3.23;;;2.70;;
359;SDS011;168;48.872;9.226;2022-08-05T11:09:42;3.03;;;2.80;;
359;SDS011;168;48.872;9.226;2022-08-05T11:15:15;2.90;;;2.70;;
359;SDS011;168;48.872;9.226;2022-08-05T11:17:44;2.70;;;2.50;;
359;SDS011;168;48.872;9.226;2022-08-05T11:26:10;2.77;;;2.57;;
359;SDS011;168;48.872;9.226;2022-08-05T11:28:46;3.40;;;3.10;;
359;SDS011;168;48.872;9.226;2022-08-05T11:34:04;3.60;;;2.90;;
359;SDS011;168;48.872;9.226;2022-08-05T11:36:47;4.40;;;2.77;;
359;SDS011;168;48.872;9.226;2022-08-05T11:42:15;3.00;;;2.80;;
359;SDS011;168;48.872;9.226;2022-08-05T11:44:49;2.80;;;2.60;;
359;SDS011;168;48.872;9.226;2022-08-05T11:47:19;2.63;;;2.50;;
359;SDS011;168;48.872;9.226;2022-08-05T11:49:53;3.30;;;2.93;;
359;SDS011;168;48.872;9.226;2022-08-05T11:52:24;2.97;;;2.77;;
359;SDS011;168;48.872;9.226;2022-08-05T11:54:52;4.23;;;2.97;;
359;SDS011;168;48.872;9.226;2022-08-05T11:57:20;3.27;;;2.70;;
359;SDS011;168;48.872;9.226;2022-08-05T11:59:53;2.90;;;2.70;;
359;SDS011;168;48.872;9.226;2022-08-05T12:02:24;3.27;;;3.03;;
359;SDS011;168;48.872;9.226;2022-08-05T12:04:53;3.20;;;2.83;;
359;SDS011;168;48.872;9.226;2022-08-05T12:07:21;2.60;;;2.40;;
359;SDS011;168;48.872;9.226;2022-08-05T12:09:51;3.30;;;3.00;;
359;SDS011;168;48.872;9.226;2022-08-05T12:12:20;3.10;;;2.90;;
359;SDS011;168;48.872;9.226;2022-08-05T12:14:48;3.20;;;2.73;;
359;SDS011;168;48.872;9.226;2022-08-05T12:17:16;3.20;;;3.00;;
359;SDS011;168;48.872;9.226;2022-08-05T12:19:44;3.20;;;3.00;;
359;SDS011;168;48.872;9.226;2022-08-05T12:22:12;2.73;;;2.53;;
359;SDS011;168;48.872;9.226;2022-08-05T12:24:42;3.13;;;2.87;;
359;SDS011;168;48.872;9.226;2022-08-05T12:27:19;2.87;;;2.67;;
359;SDS011;168;48.872;9.226;2022-08-05T12:29:56;2.90;;;2.70;;
359;SDS011;168;48.872;9.226;2022-08-05T12:32:25;3.00;;;2.80;;
359;SDS011;168;48.872;9.226;2022-08-05T12:34:52;2.93;;;2.73;;
359;SDS011;168;48.872;9.226;2022-08-05T12:37:20;2.87;;;2.70;;
359;SDS011;168;48.872;9.226;2022-08-05T12:39:48;2.50;;;2.40;;
359;SDS011;168;48.872;9.226;2022-08-05T12:42:17;4.87;;;3.07;;
359;SDS011;168;48.872;9.226;2022-08-05T12:44:46;3.47;;;2.87;;
359;SDS011;168;48.872;9.226;2022-08-05T12:47:24;3.93;;;3.20;;
359;SDS011;168;48.872;9.226;2022-08-05T12:49:53;2.77;;;2.57;;
359;SDS011;168;48.872;9.226;2022-08-05T12:52:21;3.23;;;2.90;;
359;SDS011;168;48.872;9.226;2022-08-05T12:54:48;2.97;;;2.83;;
359;SDS011;168;48.872;9.226;2022-08-05T12:57:16;4.07;;;3.00;;
359;SDS011;168;48.872;9.226;2022-08-05T12:59:46;3.30;;;2.93;;
359;SDS011;168;48.872;9.226;2022-08-05T13:02:15;3.13;;;2.90;;
359;SDS011;168;48.872;9.226;2022-08-05T13:04:46;3.23;;;2.50;;
359;SDS011;168;48.872;9.226;2022-08-05T13:07:15;3.43;;;3.13;;
359;SDS011;168;48.872;9.226;2022-08-05T13:09:47;2.90;;;2.70;;
359;SDS011;168;48.872;9.226;2022-08-05T13:12:16;4.90;;;3.30;;
359;SDS011;168;48.872;9.226;2022-08-05T13:14:46;3.03;;;2.83;;
359;SDS011;168;48.872;9.226;2022-08-05T13:17:16;3.53;;;2.90;;
359;SDS011;168;48.872;9.226;2022-08-05T13:19:58;3.03;;;2.73;;
359;SDS011;168;48.872;9.226;2022-08-05T13:22:28;3.30;;;3.10;;
359;SDS011;168;48.872;9.226;2022-08-05T13:24:57;3.27;;;3.07;;
359;SDS011;168;48.872;9.226;2022-08-05T13:27:26;3.20;;;3.00;;
359;SDS011;168;48.872;9.226;2022-08-05T13:29:56;3.73;;;3.53;;
359;SDS011;168;48.872;9.226;2022-08-05T13:32:23;3.23;;;3.00;;
359;SDS011;168;48.872;9.226;2022-08-05T13:34:51;3.03;;;2.83;;
359;SDS011;168;48.872;9.226;2022-08-05T13:37:19;3.17;;;2.97;;
359;SDS011;168;48.872;9.226;2022-08-05T13:39:47;5.80;;;3.53;;
359;SDS011;168;48.872;9.226;2022-08-05T13:42:15;3.10;;;2.80;;
359;SDS011;168;48.872;9.226;2022-08-05T13:44:43;3.00;;;2.80;;
359;SDS011;168;48.872;9.226;2022-08-05T13:47:13;4.90;;;3.30;;
359;SDS011;168;48.872;9.226;2022-08-05T13:49:40;3.37;;;3.07;;
359;SDS011;168;48.872;9.226;2022-08-05T13:52:08;3.67;;;3.37;;
359;SDS011;168;48.872;9.226;2022-08-05T13:54:37;4.13;;;2.70;;
359;SDS011;168;48.872;9.226;2022-08-05T13:57:05;2.70;;;2.50;;
359;SDS011;168;48.872;9.226;2022-08-05T13:59:32;3.00;;;2.80;;
359;SDS011;168;48.872;9.226;2022-08-05T14:02:00;3.20;;;3.00;;
359;SDS011;168;48.872;9.226;2022-08-05T14:04:30;3.50;;;3.10;;
359;SDS011;168;48.872;9.226;2022-08-05T14:07:19;2.90;;;2.70;;
359;SDS011;168;48.872;9.226;2022-08-05T14:09:48;3.30;;;3.00;;
359;SDS011;168;48.872;9.226;2022-08-05T14:12:16;2.80;;;2.60;;
359;SDS011;168;48.872;9.226;2022-08-05T14:14:44;3.57;;;3.27;;
359;SDS011;168;48.872;9.226;2022-08-05T14:17:11;3.30;;;3.10;;
359;SDS011;168;48.872;9.226;2022-08-05T14:19:40;3.20;;;3.00;;
359;SDS011;168;48.872;9.226;2022-08-05T14:22:08;3.83;;;3.53;;
359;SDS011;168;48.872;9.226;2022-08-05T14:24:36;3.00;;;2.80;;
359;SDS011;168;48.872;9.226;2022-08-05T14:27:04;3.43;;;3.20;;
359;SDS011;168;48.872;9.226;2022-08-05T14:29:32;3.63;;;2.83;;
359;SDS011;168;48.872;9.226;2022-08-05T14:31:59;3.50;;;3.20;;
359;SDS011;168;48.872;9.226;2022-08-05T14:34:27;3.47;;;3.17;;
359;SDS011;168;48.872;9.226;2022-08-05T14:36:56;3.63;;;3.37;;
359;SDS011;168;48.872;9.226;2022-08-05T14:39:23;6.40;;;3.97;;
359;SDS011;168;48.872;9.226;2022-08-05T14:41:51;4.73;;;3.60;;
359;SDS011;168;48.872;9.226;2022-08-05T14:44:19;7.20;;;4.13;;
359;SDS011;168;48.872;9.226;2022-08-05T14:46:47;4.33;;;3.87;;
359;SDS011;168;48.872;9.226;2022-08-05T14:49:14;5.20;;;3.47;;
359;SDS011;168;48.872;9.226;2022-08-05T14:51:42;6.93;;;3.50;;
359;SDS011;168;48.872;9.226;2022-08-05T14:54:11;3.60;;;3.30;;
359;SDS011;168;48.872;9.226;2022-08-05T14:56:38;3.63;;;3.33;;
359;SDS011;168;48.872;9.226;2022-08-05T14:59:06;4.33;;;4.03;;
359;SDS011;168;48.872;9.226;2022-08-05T15:01:33;4.70;;;4.30;;
359;SDS011;168;48.872;9.226;2022-08-05T15:04:01;5.20;;;4.20;;
359;SDS011;168;48.872;9.226;2022-08-05T15:06:31;4.73;;;4.33;;
359;SDS011;168;48.872;9.226;2022-08-05T15:08:58;5.37;;;4.20;;
359;SDS011;168;48.872;9.226;2022-08-05T15:11:27;6.60;;;4.70;;
359;SDS011;168;48.872;9.226;2022-08-05T15:13:54;4.43;;;4.03;;
359;SDS011;168;48.872;9.226;2022-08-05T15:16:21;4.37;;;3.87;;
359;SDS011;168;48.872;9.226;2022-08-05T15:18:49;4.53;;;4.00;;
359;SDS011;168;48.872;9.226;2022-08-05T15:21:16;5.10;;;4.17;;
359;SDS011;168;48.872;9.226;2022-08-05T15:23:44;4.23;;;3.93;;
359;SDS011;168;48.872;9.226;2022-08-05T15:26:11;4.60;;;4.20;;
359;SDS011;168;48.872;9.226;2022-08-05T15:28:41;4.27;;;3.97;;
359;SDS011;168;48.872;9.226;2022-08-05T15:31:08;6.13;;;4.67;;
359;SDS011;168;48.872;9.226;2022-08-05T15:33:36;3.97;;;3.67;;
359;SDS011;168;48.872;9.226;2022-08-05T15:36:03;5.57;;;4.20;;
359;SDS011;168;48.872;9.226;2022-08-05T15:38:31;4.90;;;3.50;;
359;SDS011;168;48.872;9.226;2022-08-05T15:40:59;4.87;;;4.43;;
359;SDS011;168;48.872;9.226;2022-08-05T15:43:27;4.17;;;3.77;;
359;SDS011;168;48.872;9.226;2022-08-05T15:45:56;4.07;;;3.67;;
359;SDS011;168;48.872;9.226;2022-08-05T15:48:25;6.07;;;4.07;;
359;SDS011;168;48.872;9.226;2022-08-05T15:50:52;4.10;;;3.80;;
359;SDS011;168;48.872;9.226;2022-08-05T15:53:20;4.60;;;4.30;;
359;SDS011;168;48.872;9.226;2022-08-05T15:55:48;4.53;;;4.23;;
359;SDS011;168;48.872;9.226;2022-08-05T15:58:16;9.00;;;4.60;;
359;SDS011;168;48.872;9.226;2022-08-05T16:00:59;5.27;;;4.40;;
359;SDS011;168;48.872;9.226;2022-08-05T16:03:28;4.40;;;4.00;;
359;SDS011;168;48.872;9.226;2022-08-05T16:05:56;4.70;;;4.30;;
359;SDS011;168;48.872;9.226;2022-08-05T16:08:23;4.40;;;4.03;;
359;SDS011;168;48.872;9.226;2022-08-05T16:10:52;4.90;;;4.50;;
359;SDS011;168;48.872;9.226;2022-08-05T16:13:20;5.27;;;4.77;;
359;SDS011;168;48.872;9.226;2022-08-05T16:15:49;6.20;;;5.70;;
359;SDS011;168;48.872;9.226;2022-08-05T16:18:18;5.17;;;4.77;;
359;SDS011;168;48.872;9.226;2022-08-05T16:20:46;4.67;;;4.37;;
359;SDS011;168;48.872;9.226;2022-08-05T16:23:14;4.07;;;3.83;;
359;SDS011;168;48.872;9.226;2022-08-05T16:25:42;4.03;;;3.70;;
359;SDS011;168;48.872;9.226;2022-08-05T16:28:09;4.67;;;4.37;;
359;SDS011;168;48.872;9.226;2022-08-05T16:30:39;4.57;;;4.17;;
359;SDS011;168;48.872;9.226;2022-08-05T16:33:06;4.23;;;3.97;;
359;SDS011;168;48.872;9.226;2022-08-05T16:35:44;3.70;;;3.40;;
359;SDS011;168;48.872;9.226;2022-08-05T16:38:12;4.50;;;4.10;;
359;SDS011;168;48.872;9.226;2022-08-05T16:44:09;4.70;;;4.27;;
359;SDS011;168;48.872;9.226;2022-08-05T16:46:55;4.63;;;4.20;;
359;SDS011;168;48.872;9.226;2022-08-05T16:50:12;4.50;;;4.20;;
359;SDS011;168;48.872;9.226;2022-08-05T16:52:53;4.17;;;3.87;;
359;SDS011;168;48.872;9.226;2022-08-05T16:55:29;4.33;;;3.97;;
359;SDS011;168;48.872;9.226;2022-08-05T16:57:57;4.30;;;4.07;;
359;SDS011;168;48.872;9.226;2022-08-05T17:00:25;4.27;;;3.90;;
359;SDS011;168;48.872;9.226;2022-08-05T17:02:52;4.30;;;4.00;;
359;SDS011;168;48.872;9.226;2022-08-05T17:05:21;4.10;;;3.80;;
359;SDS011;168;48.872;9.226;2022-08-05T17:07:50;4.67;;;4.30;;
359;SDS011;168;48.872;9.226;2022-08-05T17:10:17;4.30;;;4.00;;
359;SDS011;168;48.872;9.226;2022-08-05T17:12:44;5.30;;;4.30;;